首页
METAR-TAF:

METAR-TAF

机场 :

布鲁塞尔南部-沙勒罗瓦机场

沙勒罗瓦, 比利时

纬度: 50-28N, 经度: 004-27E, 海拔: 187米

当前天气观测

该预报发布于34分钟前的18:20 UTC
风速11节,风向南转西南
温度 6°C
湿度 81%
气压 1021 hPa
能见度10公里或以上
少量云层高于2400英尺

METAR: EBCI 181820Z 21011KT 9999 FEW024 06/03 Q1021 TEMPO 23015G25KT

时间: 19:54 (18:54 UTC)

预报

该预报发布于1小时和50分钟前的17:04 UTC
预报有效从18日的 18点(UTC)到 19日的 24点(UTC)
风速16节,风向西南,有时为28节阵风
能见度10公里或以上
少量云层高于2000英尺
散云层高于3000英尺
短暂存在
从 18日的 20点(UTC)到 19日的 03点(UTC)
能見度: 4000
多云层高于1300英尺, 积雨云.
阵雨, 雨
几率 40% :
短暂存在
从 18日的 21点(UTC)到 19日的 01点(UTC)
风速20节,风向西南,有时为38节阵风
能見度: 2500
阵雨, 阵雨, 小冰雹或雪球
成为
从 19日的 00点(UTC)到 19日的 02点(UTC)
风速12节,风向西
几率 40% :
短暂存在
从 19日的 18点(UTC)到 19日的 24点(UTC)
能見度: 4500
散云层高于800英尺
多云层高于1200英尺

TAF: EBCI 181704Z 1818/1924 22016G28KT 9999 FEW020 SCT030 TEMPO 1820/1903 4000 SHRA RA BKN013CB PROB40 TEMPO 1821/1901 22020G38KT 2500 SHRA SHRAGS BECMG 1900/1902 26012KT PROB40 TEMPO 1918/1924 4500 RA SCT008 BKN012

超过4000个机场的气象观测和天气预报(METAR&TAF报告)。

可查询的气象台以黄色和红色小点在地图上表示。

将鼠标移到小点上方,可查看气象台名称。

然后点击查看天气观测和预报。

如需切换地图:点击带黑十字的绿色按钮放大地图;点击带横线的绿色按钮缩小地图;或者点击绿色箭头查看邻近地区的地图。


METAR-TAF: